createdAt,value
2022-11-19T00:00:08.304Z,940.47
2022-11-19T00:05:03.150Z,940.53
2022-11-19T00:10:03.235Z,940.53
2022-11-19T00:15:03.264Z,940.59
2022-11-19T00:20:03.227Z,940.63
2022-11-19T00:25:03.124Z,940.70
2022-11-19T00:30:05.472Z,940.74
2022-11-19T00:35:03.063Z,940.70
2022-11-19T00:40:03.251Z,940.76
2022-11-19T00:45:08.087Z,940.78
2022-11-19T00:50:03.186Z,940.74
2022-11-19T00:55:03.054Z,940.70
2022-11-19T01:00:03.192Z,940.68
2022-11-19T01:05:03.038Z,940.72
2022-11-19T01:10:03.181Z,940.70
2022-11-19T01:15:03.063Z,940.72
2022-11-19T01:20:03.225Z,940.76
2022-11-19T01:25:03.030Z,940.74
2022-11-19T01:30:03.223Z,940.72
2022-11-19T01:35:03.168Z,940.70
2022-11-19T01:40:03.159Z,940.63
2022-11-19T01:45:03.027Z,940.61
2022-11-19T01:50:03.210Z,940.66
2022-11-19T01:55:03.110Z,940.64
2022-11-19T02:00:03.453Z,940.63
2022-11-19T02:05:03.331Z,940.63
2022-11-19T02:10:03.288Z,940.59
2022-11-19T02:15:04.094Z,940.55
2022-11-19T02:20:03.230Z,940.51
2022-11-19T02:25:03.007Z,940.45
2022-11-19T02:30:03.112Z,940.47
2022-11-19T17:45:07.638Z,939.94
2022-11-19T17:50:03.146Z,939.90
2022-11-19T17:55:02.994Z,939.90
2022-11-19T18:00:04.829Z,939.82
2022-11-19T18:05:04.617Z,939.72
2022-11-19T18:10:03.898Z,939.58
2022-11-19T18:15:03.156Z,939.56
2022-11-19T18:20:03.253Z,939.56
2022-11-19T18:25:03.153Z,939.53
2022-11-19T18:30:03.289Z,939.41
2022-11-19T18:35:04.155Z,939.35
2022-11-19T18:40:03.223Z,939.21
2022-11-19T18:45:03.063Z,939.15
2022-11-19T18:50:03.173Z,939.09
2022-11-19T18:55:03.106Z,939.00
2022-11-19T19:00:03.377Z,938.96
2022-11-19T19:05:03.100Z,938.88
2022-11-19T19:10:03.289Z,938.80
2022-11-19T19:15:03.032Z,938.74
2022-11-19T19:20:03.210Z,938.72
2022-11-19T19:25:03.150Z,938.64
2022-11-19T19:30:03.337Z,938.66
2022-11-19T19:35:03.094Z,938.62
2022-11-19T19:40:03.186Z,938.60
2022-11-19T19:45:08.104Z,938.52
2022-11-19T19:50:03.217Z,938.54
2022-11-19T19:55:03.024Z,938.54
2022-11-19T20:00:03.192Z,938.52
2022-11-19T20:05:04.144Z,938.52
2022-11-19T20:10:03.216Z,938.52
2022-11-19T20:15:03.248Z,938.49
2022-11-19T20:20:03.242Z,938.45
2022-11-19T20:25:03.061Z,938.37
2022-11-19T20:30:03.511Z,938.45
2022-11-19T20:35:04.060Z,938.45
2022-11-19T20:40:03.336Z,938.45
2022-11-19T20:45:04.122Z,938.45
2022-11-19T20:50:03.336Z,938.52
2022-11-19T20:55:06.533Z,938.52
2022-11-19T21:00:03.303Z,938.52
2022-11-19T21:05:03.079Z,938.56
2022-11-19T21:10:07.560Z,938.58
2022-11-19T21:15:03.096Z,938.58
2022-11-19T21:20:03.234Z,938.49
2022-11-19T21:25:03.541Z,938.49
2022-11-19T21:30:03.229Z,938.45
2022-11-19T21:35:03.104Z,938.33
2022-11-19T21:40:03.205Z,938.35
2022-11-19T21:45:03.026Z,938.37
2022-11-19T21:50:03.411Z,938.45
2022-11-19T21:55:03.267Z,938.37
2022-11-19T22:00:03.234Z,938.45
2022-11-19T22:05:03.082Z,938.45
2022-11-19T22:10:03.083Z,938.51
2022-11-19T22:15:03.161Z,938.54
2022-11-19T22:20:03.237Z,938.60
2022-11-19T22:25:03.754Z,938.56
2022-11-19T22:30:06.014Z,938.54
2022-11-19T22:35:03.067Z,938.58
2022-11-19T22:40:03.264Z,938.60
2022-11-19T22:45:03.144Z,938.58
2022-11-19T22:50:03.256Z,938.52
2022-11-19T22:55:03.140Z,938.51
2022-11-19T23:00:03.190Z,938.49
2022-11-19T23:05:03.077Z,938.47
2022-11-19T23:10:03.138Z,938.52
2022-11-19T23:15:03.118Z,938.56
2022-11-19T23:20:04.718Z,938.54
2022-11-19T23:25:03.072Z,938.62
2022-11-19T23:30:03.191Z,938.68
2022-11-19T23:35:03.048Z,938.76
2022-11-19T23:40:03.181Z,938.88
2022-11-19T23:46:12.065Z,938.92
2022-11-19T23:50:03.745Z,938.94
2022-11-19T23:55:03.125Z,938.96
